createdAt,value
2022-11-06T00:00:31.531Z,7.80
2022-11-06T00:03:01.979Z,7.80
2022-11-06T00:05:48.621Z,7.90
2022-11-06T00:08:17.175Z,7.90
2022-11-06T00:10:45.224Z,7.90
2022-11-06T00:13:13.265Z,7.90
2022-11-06T00:15:41.500Z,8.00
2022-11-06T00:18:11.250Z,8.00
2022-11-06T00:20:39.956Z,8.00
2022-11-06T00:23:08.120Z,8.00
2022-11-06T00:25:36.563Z,8.00
2022-11-06T00:28:04.614Z,8.00
2022-11-06T00:30:32.984Z,8.00
2022-11-06T00:33:00.997Z,8.10
2022-11-06T00:35:30.805Z,8.10
2022-11-06T00:37:58.932Z,8.00
2022-11-06T00:40:27.312Z,8.00
2022-11-06T00:42:57.035Z,8.00
2022-11-06T00:45:26.103Z,8.00
2022-11-06T00:47:54.153Z,8.00
2022-11-06T00:50:26.607Z,8.00
2022-11-06T00:52:56.195Z,7.90
2022-11-06T00:55:24.397Z,7.90
2022-11-06T00:57:52.470Z,7.90
2022-11-06T01:00:20.996Z,7.90
2022-11-06T01:02:49.517Z,7.90
2022-11-06T01:05:18.221Z,7.80
2022-11-06T01:07:46.826Z,7.90
2022-11-06T01:10:16.576Z,7.80
2022-11-06T01:12:44.626Z,7.80
2022-11-06T01:15:12.809Z,7.80
2022-11-06T01:17:41.206Z,7.70
2022-11-06T01:20:10.436Z,7.70
2022-11-06T01:22:38.481Z,7.70
2022-11-06T01:25:07.956Z,7.70
2022-11-06T01:27:37.452Z,7.70
2022-11-06T01:30:06.628Z,7.70
2022-11-06T01:32:35.920Z,7.70
2022-11-06T01:35:04.333Z,7.80
2022-11-06T01:37:32.368Z,7.80
2022-11-06T01:40:00.719Z,7.80
2022-11-06T01:42:28.768Z,7.80
2022-11-06T01:45:25.206Z,7.80
2022-11-06T01:47:53.595Z,7.80
2022-11-06T01:50:22.208Z,7.80
2022-11-06T01:52:51.843Z,7.80
2022-11-06T01:55:25.190Z,7.90
2022-11-06T01:57:53.543Z,7.90
2022-11-06T02:00:23.086Z,7.90
2022-11-06T02:02:52.509Z,7.90
2022-11-06T02:05:20.849Z,7.90
2022-11-06T02:07:50.234Z,7.80
2022-11-06T02:10:18.707Z,7.80
2022-11-06T02:12:54.997Z,7.90
2022-11-06T02:15:35.498Z,7.80
2022-11-06T02:18:19.823Z,7.90
2022-11-06T02:21:00.102Z,7.90
2022-11-06T02:24:01.349Z,7.90
2022-11-06T02:26:49.832Z,8.00
2022-11-06T02:29:23.811Z,8.00
2022-11-06T02:31:57.109Z,8.00
2022-11-06T02:34:28.743Z,8.00
2022-11-06T02:37:01.160Z,8.00
2022-11-06T02:39:32.502Z,8.10
2022-11-06T02:42:04.103Z,8.10
2022-11-06T02:44:37.784Z,8.10
2022-11-06T02:47:10.529Z,8.10
2022-11-06T02:49:43.879Z,8.20
2022-11-06T02:52:17.008Z,8.20
2022-11-06T02:54:50.664Z,8.20
2022-11-06T02:57:22.914Z,8.20
2022-11-06T02:59:58.223Z,8.20
2022-11-06T03:02:32.337Z,8.20
2022-11-06T03:05:07.239Z,8.20
2022-11-06T03:07:40.999Z,8.30
2022-11-06T03:10:10.840Z,8.20
2022-11-06T03:12:51.167Z,8.20
2022-11-06T03:15:24.429Z,8.20
2022-11-06T03:18:00.684Z,8.20
2022-11-06T03:20:36.027Z,8.20
2022-11-06T03:23:10.905Z,8.20
2022-11-06T03:25:48.372Z,8.20
2022-11-06T03:28:24.954Z,8.20
2022-11-06T03:30:58.250Z,8.20
2022-11-06T03:33:34.090Z,8.20
2022-11-06T03:36:07.328Z,8.20
2022-11-06T03:38:42.188Z,8.20
2022-11-06T03:41:14.964Z,8.20
2022-11-06T03:43:48.768Z,8.20
2022-11-06T03:46:22.109Z,8.30
2022-11-06T03:48:54.040Z,8.40
2022-11-06T03:51:26.311Z,8.30
2022-11-06T03:53:59.187Z,8.30
2022-11-06T03:56:32.599Z,8.30
2022-11-06T03:59:05.500Z,8.30
2022-11-06T04:01:36.778Z,8.40
2022-11-06T04:04:10.400Z,8.40
2022-11-06T04:06:44.282Z,8.30
2022-11-06T04:09:32.892Z,8.30
2022-11-06T04:12:34.324Z,8.40
2022-11-06T04:15:04.898Z,8.40
2022-11-06T04:17:33.563Z,8.30
2022-11-06T04:20:08.239Z,8.30
2022-11-06T04:22:46.534Z,8.40
2022-11-06T04:25:43.506Z,8.30
2022-11-06T04:28:27.141Z,8.40
2022-11-06T04:31:07.237Z,8.40
2022-11-06T04:33:44.243Z,8.30
2022-11-06T04:36:19.065Z,8.30
2022-11-06T04:38:56.402Z,8.40
2022-11-06T04:41:34.834Z,8.40
2022-11-06T04:44:06.500Z,8.30
2022-11-06T04:46:42.153Z,8.30
2022-11-06T04:49:12.556Z,8.30
2022-11-06T04:51:41.950Z,8.30
2022-11-06T04:54:11.753Z,8.30
2022-11-06T04:56:44.721Z,8.30
2022-11-06T04:59:16.400Z,8.30
2022-11-06T05:01:47.001Z,8.30
2022-11-06T05:04:15.322Z,8.30
2022-11-06T05:06:43.437Z,8.30
2022-11-06T05:09:11.613Z,8.30
2022-11-06T05:11:39.940Z,8.30
2022-11-06T05:14:08.188Z,8.40
2022-11-06T05:16:36.359Z,8.40
2022-11-06T05:19:06.000Z,8.40
2022-11-06T05:21:51.907Z,8.40
2022-11-06T05:24:20.060Z,8.50
2022-11-06T05:26:48.113Z,8.50
2022-11-06T05:29:16.451Z,8.50
2022-11-06T05:31:44.461Z,8.60
2022-11-06T05:34:14.219Z,8.50
2022-11-06T05:36:42.267Z,8.60
2022-11-06T05:39:10.806Z,8.50
2022-11-06T05:41:38.800Z,8.60
2022-11-06T05:44:07.129Z,8.60
2022-11-06T05:46:48.370Z,8.60
2022-11-06T05:49:19.076Z,8.60
2022-11-06T05:51:47.283Z,8.60
2022-11-06T05:54:15.829Z,8.60
2022-11-06T05:56:43.907Z,8.60
2022-11-06T05:59:13.098Z,8.60
2022-11-06T06:01:41.331Z,8.60
2022-11-06T06:04:09.455Z,8.60
2022-11-06T06:06:39.317Z,8.60
2022-11-06T06:09:07.417Z,8.60
2022-11-06T06:11:35.547Z,8.60
2022-11-06T06:14:03.596Z,8.60
2022-11-06T06:16:32.045Z,8.60
2022-11-06T06:19:00.119Z,8.60
2022-11-06T06:21:28.421Z,8.60
2022-11-06T06:23:57.845Z,8.60
2022-11-06T06:26:26.089Z,8.60
2022-11-06T06:28:54.531Z,8.60
2022-11-06T06:31:22.949Z,8.60
2022-11-06T06:33:51.209Z,8.60
2022-11-06T06:36:19.221Z,8.60
2022-11-06T06:38:47.266Z,8.50
2022-11-06T06:41:16.958Z,8.60
2022-11-06T06:43:44.981Z,8.60
2022-11-06T06:46:12.977Z,8.60
2022-11-06T06:48:41.027Z,9.20
2022-11-06T06:51:09.309Z,9.80
2022-11-06T06:53:38.242Z,9.70
2022-11-06T06:56:07.133Z,9.90
2022-11-06T06:58:37.429Z,10.20
2022-11-06T07:01:10.591Z,10.00
2022-11-06T07:03:39.630Z,10.60
2022-11-06T07:06:08.493Z,10.30
2022-11-06T07:08:36.558Z,10.10
2022-11-06T07:11:06.847Z,10.30
2022-11-06T07:13:36.920Z,10.00
2022-11-06T07:16:05.733Z,10.20
2022-11-06T07:18:34.139Z,10.20
2022-11-06T07:21:02.289Z,10.40
2022-11-06T07:23:30.576Z,11.80
2022-11-06T07:25:58.632Z,11.00
2022-11-06T07:28:26.981Z,10.80
2022-11-06T07:30:59.689Z,10.70
2022-11-06T07:33:27.855Z,11.50
2022-11-06T07:35:56.036Z,11.70
2022-11-06T07:38:24.089Z,11.70
2022-11-06T07:40:52.430Z,12.10
2022-11-06T07:43:20.427Z,11.30
2022-11-06T07:45:48.449Z,11.60
2022-11-06T07:48:18.163Z,11.40
2022-11-06T07:50:46.147Z,11.10
2022-11-06T07:53:14.813Z,11.00
2022-11-06T07:55:49.508Z,11.00
2022-11-06T07:58:18.155Z,11.30
2022-11-06T08:00:48.727Z,12.00
2022-11-06T08:03:18.642Z,12.50
2022-11-06T08:05:47.250Z,12.60
2022-11-06T08:08:16.220Z,12.20
2022-11-06T08:10:44.655Z,11.80
2022-11-06T08:13:14.132Z,11.80
2022-11-06T08:15:43.216Z,12.20
2022-11-06T08:18:12.827Z,12.70
2022-11-06T08:20:43.151Z,13.30
2022-11-06T08:23:13.320Z,13.30
2022-11-06T08:25:41.684Z,12.30
2022-11-06T08:28:10.839Z,11.90
2022-11-06T08:30:39.729Z,11.70
2022-11-06T08:33:09.176Z,11.60
2022-11-06T08:35:37.474Z,11.80
2022-11-06T08:38:07.217Z,12.30
2022-11-06T08:40:37.286Z,12.40
2022-11-06T08:43:07.957Z,12.90
2022-11-06T08:45:38.457Z,12.70
2022-11-06T08:48:08.263Z,12.70
2022-11-06T08:50:37.835Z,13.10
2022-11-06T08:53:08.340Z,12.30
2022-11-06T08:55:38.817Z,12.50
2022-11-06T08:58:07.643Z,13.10
2022-11-06T09:00:36.443Z,14.10
2022-11-06T09:03:07.140Z,14.20
2022-11-06T09:05:35.421Z,14.70
2022-11-06T09:08:03.468Z,15.20
2022-11-06T09:10:33.302Z,14.90
2022-11-06T09:13:01.333Z,15.30
2022-11-06T09:15:29.506Z,15.40
2022-11-06T09:17:57.937Z,16.20
2022-11-06T09:20:26.911Z,16.30
2022-11-06T09:22:55.651Z,16.80
2022-11-06T09:25:23.741Z,16.40
2022-11-06T09:27:58.870Z,16.90
2022-11-06T09:30:28.708Z,15.30
2022-11-06T09:32:58.638Z,14.60
2022-11-06T09:35:28.253Z,14.60
2022-11-06T09:37:56.250Z,15.30
2022-11-06T09:40:34.608Z,15.60
2022-11-06T09:43:13.169Z,14.90
2022-11-06T09:45:42.189Z,15.30
2022-11-06T09:48:20.547Z,15.30
2022-11-06T09:50:52.507Z,16.40
2022-11-06T09:53:26.017Z,15.90
2022-11-06T09:55:54.801Z,15.20
2022-11-06T09:58:28.783Z,15.50
2022-11-06T10:00:56.936Z,15.70
2022-11-06T10:03:36.980Z,16.00
2022-11-06T10:06:05.518Z,15.80
2022-11-06T10:08:34.102Z,15.20
2022-11-06T10:11:05.637Z,15.20
2022-11-06T10:13:55.441Z,14.50
2022-11-06T10:16:31.394Z,15.10
2022-11-06T10:19:11.129Z,15.10
2022-11-06T10:21:48.861Z,15.40
2022-11-06T10:24:23.871Z,15.00
2022-11-06T10:26:55.917Z,14.40
2022-11-06T10:29:48.853Z,14.90
2022-11-06T10:32:49.432Z,15.70
2022-11-06T10:35:21.510Z,15.90
2022-11-06T10:37:55.121Z,15.50
2022-11-06T10:40:26.251Z,15.60
2022-11-06T10:43:01.060Z,16.20
2022-11-06T10:45:31.321Z,15.50
2022-11-06T10:48:06.457Z,15.70
2022-11-06T10:50:47.638Z,16.00
2022-11-06T10:53:27.208Z,15.60
2022-11-06T10:56:10.782Z,14.80
2022-11-06T10:58:39.420Z,14.60
2022-11-06T11:01:14.911Z,15.10
2022-11-06T11:03:44.714Z,15.70
2022-11-06T11:06:13.179Z,15.90
2022-11-06T11:08:43.938Z,15.60
2022-11-06T11:11:21.035Z,15.40
2022-11-06T11:13:50.593Z,15.30
2022-11-06T11:16:22.503Z,15.80
2022-11-06T11:18:51.912Z,14.90
2022-11-06T11:21:27.707Z,15.10
2022-11-06T11:24:09.967Z,14.90
2022-11-06T11:26:41.255Z,14.90
2022-11-06T11:29:17.448Z,14.90
2022-11-06T11:31:52.233Z,14.60
2022-11-06T11:34:22.878Z,14.20
2022-11-06T11:36:58.030Z,15.50
2022-11-06T11:39:29.895Z,16.20
2022-11-06T11:42:17.612Z,15.40
2022-11-06T11:44:45.704Z,15.10
2022-11-06T11:47:24.512Z,16.00
2022-11-06T11:49:52.646Z,16.20
2022-11-06T11:52:22.974Z,15.90
2022-11-06T11:54:53.925Z,16.00
2022-11-06T11:57:25.100Z,15.70
2022-11-06T11:59:56.408Z,15.90
2022-11-06T12:02:29.549Z,16.40
2022-11-06T12:05:00.009Z,15.40
2022-11-06T12:07:30.871Z,15.90
2022-11-06T12:10:00.104Z,15.90
2022-11-06T12:12:32.453Z,15.40
2022-11-06T12:15:19.496Z,15.20
2022-11-06T12:17:54.169Z,15.90
2022-11-06T12:20:27.711Z,16.30
2022-11-06T12:22:57.826Z,15.60
2022-11-06T12:25:30.249Z,15.70
2022-11-06T12:28:00.904Z,15.10
2022-11-06T12:30:32.896Z,14.80
2022-11-06T12:33:07.760Z,15.00
2022-11-06T12:35:41.498Z,15.70
2022-11-06T12:38:19.387Z,15.70
2022-11-06T12:40:52.301Z,15.40
2022-11-06T12:43:28.372Z,15.40
2022-11-06T12:46:11.544Z,15.90
2022-11-06T12:49:05.455Z,15.60
2022-11-06T12:51:45.496Z,15.40
2022-11-06T12:54:27.529Z,14.60
2022-11-06T12:57:06.479Z,15.60
2022-11-06T12:59:46.284Z,15.40
2022-11-06T13:02:30.481Z,15.30
2022-11-06T13:05:06.796Z,15.60
2022-11-06T13:07:56.822Z,14.70
2022-11-06T13:10:41.583Z,14.80
2022-11-06T13:13:27.213Z,15.50
2022-11-06T13:16:00.679Z,14.90
2022-11-06T13:18:35.551Z,15.20
2022-11-06T13:21:11.470Z,15.70
2022-11-06T13:23:43.560Z,15.20
2022-11-06T13:26:18.730Z,15.40
2022-11-06T13:28:51.227Z,15.50
2022-11-06T13:31:23.137Z,15.50
2022-11-06T13:33:54.553Z,15.70
2022-11-06T13:36:24.606Z,15.60
2022-11-06T13:38:56.712Z,15.70
2022-11-06T13:41:28.604Z,15.60
2022-11-06T13:44:00.533Z,15.40
2022-11-06T13:46:38.402Z,14.90
2022-11-06T13:49:15.993Z,15.20
2022-11-06T13:51:51.621Z,15.00
2022-11-06T13:54:35.462Z,14.80
2022-11-06T13:57:20.173Z,14.80
2022-11-06T14:00:02.737Z,14.10
2022-11-06T14:03:02.235Z,14.10
2022-11-06T14:05:51.419Z,13.60
2022-11-06T14:08:25.353Z,13.30
2022-11-06T14:10:58.643Z,13.30
2022-11-06T14:13:29.824Z,13.60
2022-11-06T14:16:06.961Z,13.70
2022-11-06T14:18:36.671Z,13.30
2022-11-06T14:21:50.991Z,13.20
2022-11-06T14:24:32.818Z,13.00
2022-11-06T14:27:02.625Z,13.10
2022-11-06T14:30:01.404Z,13.10
2022-11-06T14:32:56.577Z,13.10
2022-11-06T14:35:52.548Z,12.90
2022-11-06T14:38:44.868Z,12.80
2022-11-06T14:41:49.257Z,12.70
2022-11-06T14:44:42.767Z,12.70
2022-11-06T14:47:24.892Z,12.50
2022-11-06T14:49:55.618Z,12.40
2022-11-06T14:52:26.163Z,12.40
2022-11-06T14:55:04.421Z,12.50
2022-11-06T14:57:40.582Z,12.30
2022-11-06T15:00:15.529Z,12.30
2022-11-06T15:02:44.855Z,12.30
2022-11-06T15:05:19.782Z,12.40
2022-11-06T15:08:04.979Z,12.40
2022-11-06T15:10:55.078Z,12.20
2022-11-06T15:13:33.488Z,12.00
2022-11-06T15:16:25.417Z,11.90
2022-11-06T15:18:54.521Z,11.80
2022-11-06T15:21:25.905Z,11.70
2022-11-06T15:24:04.180Z,11.70
2022-11-06T15:26:38.761Z,11.60
2022-11-06T15:29:21.539Z,11.60
2022-11-06T15:31:53.953Z,11.50
2022-11-06T15:34:29.255Z,11.40
2022-11-06T15:37:05.261Z,11.50
2022-11-06T15:39:39.137Z,11.60
2022-11-06T15:42:10.164Z,11.90
2022-11-06T15:44:42.006Z,11.70
2022-11-06T15:47:22.212Z,11.60
2022-11-06T15:49:50.355Z,11.50
2022-11-06T15:52:19.782Z,11.40
2022-11-06T15:54:49.261Z,11.40
2022-11-06T15:57:21.076Z,11.40
2022-11-06T15:59:50.184Z,11.30
2022-11-06T16:02:22.642Z,11.40
2022-11-06T16:04:51.845Z,11.60
2022-11-06T16:07:20.861Z,11.60
2022-11-06T16:09:50.475Z,11.40
2022-11-06T16:12:19.763Z,11.20
2022-11-06T16:14:47.887Z,11.30
2022-11-06T16:17:24.735Z,11.40
2022-11-06T16:19:58.385Z,11.70
2022-11-06T16:22:31.052Z,12.00
2022-11-06T16:25:02.754Z,11.90
2022-11-06T16:27:35.331Z,11.80
2022-11-06T16:30:05.119Z,11.60
2022-11-06T16:32:39.284Z,11.10
2022-11-06T16:35:31.568Z,11.00
2022-11-06T16:38:45.597Z,11.00
2022-11-06T16:41:36.696Z,11.00
2022-11-06T16:44:31.317Z,10.90
2022-11-06T16:47:18.256Z,11.00
2022-11-06T16:49:53.538Z,11.10
2022-11-06T16:52:30.552Z,10.80
2022-11-06T16:55:02.017Z,10.50
2022-11-06T16:57:33.480Z,10.40
2022-11-06T17:00:05.333Z,10.30
2022-11-06T17:02:37.919Z,10.20
2022-11-06T17:05:15.564Z,10.20
2022-11-06T17:07:46.045Z,10.20
2022-11-06T17:10:38.618Z,10.10
2022-11-06T17:13:18.511Z,10.20
2022-11-06T17:15:49.262Z,10.60
2022-11-06T17:18:20.728Z,10.70
2022-11-06T17:20:53.527Z,10.70
2022-11-06T17:23:23.995Z,10.80
2022-11-06T17:25:54.086Z,10.80
2022-11-06T17:28:22.800Z,10.80
2022-11-06T17:30:51.841Z,10.80
2022-11-06T17:33:20.275Z,10.80
2022-11-06T17:35:49.309Z,10.90
2022-11-06T17:38:18.581Z,10.70
2022-11-06T17:40:48.479Z,10.70
2022-11-06T17:43:17.221Z,10.70
2022-11-06T17:45:48.099Z,10.50
2022-11-06T17:48:16.240Z,10.40
2022-11-06T17:51:02.315Z,10.50
2022-11-06T17:53:30.773Z,10.40
2022-11-06T17:56:03.766Z,10.50
2022-11-06T17:58:31.868Z,10.20
2022-11-06T18:01:07.164Z,10.40
2022-11-06T18:03:36.858Z,10.40
2022-11-06T18:06:05.988Z,10.40
2022-11-06T18:08:34.396Z,10.20
2022-11-06T18:11:03.780Z,10.10
2022-11-06T18:13:32.338Z,10.00
2022-11-06T18:16:00.466Z,10.00
2022-11-06T18:18:28.758Z,9.90
2022-11-06T18:20:56.900Z,9.90
2022-11-06T18:23:25.095Z,10.10
2022-11-06T18:25:57.278Z,10.00
2022-11-06T18:28:27.967Z,9.90
2022-11-06T18:30:56.052Z,9.90
2022-11-06T18:33:24.139Z,9.80
2022-11-06T18:35:52.545Z,9.80
2022-11-06T18:38:20.792Z,9.90
2022-11-06T18:40:51.895Z,9.90
2022-11-06T18:43:20.173Z,9.90
2022-11-06T18:45:50.048Z,9.90
2022-11-06T18:48:21.360Z,9.90
2022-11-06T18:50:49.969Z,9.80
2022-11-06T18:53:18.172Z,9.80
2022-11-06T18:55:46.974Z,9.70
2022-11-06T18:58:15.934Z,9.70
2022-11-06T19:00:44.732Z,9.60
2022-11-06T19:03:14.239Z,9.60
2022-11-06T19:05:48.058Z,9.60
2022-11-06T19:08:16.611Z,9.70
2022-11-06T19:10:47.495Z,9.70
2022-11-06T19:13:15.629Z,9.60
2022-11-06T19:15:44.245Z,9.60
2022-11-06T19:18:14.246Z,9.60
2022-11-06T19:20:42.663Z,9.60
2022-11-06T19:23:14.745Z,9.60
2022-11-06T19:25:43.353Z,9.60
2022-11-06T19:28:12.650Z,9.60
2022-11-06T19:30:41.292Z,9.70
2022-11-06T19:33:09.360Z,9.90
2022-11-06T19:35:39.914Z,9.80
2022-11-06T19:38:08.430Z,9.70
2022-11-06T19:40:36.480Z,9.70
2022-11-06T19:43:07.031Z,9.70
2022-11-06T19:45:36.506Z,9.90
2022-11-06T19:48:04.804Z,9.90
2022-11-06T19:50:58.206Z,9.90
2022-11-06T19:53:25.552Z,9.90
2022-11-06T19:55:53.778Z,9.90
2022-11-06T19:58:22.162Z,9.90
2022-11-06T20:00:50.221Z,10.00
2022-11-06T20:03:18.506Z,10.10
2022-11-06T20:05:46.645Z,10.00
2022-11-06T20:08:14.906Z,10.00
2022-11-06T20:10:44.382Z,10.00
2022-11-06T20:13:12.595Z,10.10
2022-11-06T20:15:40.981Z,10.00
2022-11-06T20:18:09.415Z,10.00
2022-11-06T20:20:37.777Z,10.00
2022-11-06T20:23:05.841Z,10.00
2022-11-06T20:25:33.880Z,10.00
2022-11-06T20:28:03.357Z,10.00
2022-11-06T20:30:31.639Z,10.00
2022-11-06T20:32:59.625Z,10.00
2022-11-06T20:35:27.664Z,10.00
2022-11-06T20:37:55.720Z,10.00
2022-11-06T20:40:23.728Z,10.10
2022-11-06T20:42:51.739Z,10.10
2022-11-06T20:45:21.238Z,10.10
2022-11-06T20:47:49.321Z,10.10
2022-11-06T20:50:17.558Z,10.10
2022-11-06T20:52:47.421Z,10.10
2022-11-06T20:55:15.435Z,10.00
2022-11-06T20:57:43.784Z,10.00
2022-11-06T21:00:13.394Z,10.00
2022-11-06T21:02:43.236Z,10.00
2022-11-06T21:05:11.502Z,9.90
2022-11-06T21:07:39.477Z,9.80
2022-11-06T21:10:07.910Z,9.80
2022-11-06T21:12:35.903Z,9.80
2022-11-06T21:15:04.010Z,9.70
2022-11-06T21:17:32.169Z,9.70
2022-11-06T21:20:01.559Z,9.50
2022-11-06T21:22:29.626Z,9.50
2022-11-06T21:24:57.953Z,9.70
2022-11-06T21:27:26.065Z,9.80
2022-11-06T21:29:55.962Z,9.80
2022-11-06T21:32:24.044Z,9.90
2022-11-06T21:34:52.023Z,9.90
2022-11-06T21:37:32.821Z,9.80
2022-11-06T21:40:01.270Z,10.00
2022-11-06T21:42:29.360Z,10.00
2022-11-06T21:44:57.768Z,10.10
2022-11-06T21:47:25.845Z,9.90
2022-11-06T21:49:56.788Z,9.70
2022-11-06T21:52:43.605Z,9.60
2022-11-06T21:55:29.389Z,9.50
2022-11-06T21:57:57.367Z,9.60
2022-11-06T22:00:25.408Z,9.50
2022-11-06T22:02:53.424Z,9.60
2022-11-06T22:05:21.486Z,9.40
2022-11-06T22:07:50.850Z,9.30
2022-11-06T22:10:18.973Z,9.20
2022-11-06T22:12:47.042Z,9.20
2022-11-06T22:15:15.074Z,9.20
2022-11-06T22:17:43.068Z,9.20
2022-11-06T22:20:12.436Z,9.50
2022-11-06T22:22:40.471Z,9.60
2022-11-06T22:25:10.846Z,9.70
2022-11-06T22:27:41.016Z,9.70
2022-11-06T22:30:10.547Z,9.60
2022-11-06T22:32:38.982Z,9.60
2022-11-06T22:35:07.226Z,9.60
2022-11-06T22:37:35.277Z,9.60
2022-11-06T22:40:03.383Z,9.60
2022-11-06T22:42:32.782Z,9.50
2022-11-06T22:45:01.074Z,9.40
2022-11-06T22:47:29.810Z,9.40
2022-11-06T22:49:58.190Z,9.30
2022-11-06T22:52:26.283Z,9.40
2022-11-06T22:54:54.388Z,9.40
2022-11-06T22:57:22.744Z,9.30
2022-11-06T22:59:52.230Z,9.30
2022-11-06T23:02:20.413Z,9.30
2022-11-06T23:04:48.773Z,9.30
2022-11-06T23:07:16.782Z,9.30
2022-11-06T23:09:45.300Z,9.30
2022-11-06T23:12:14.183Z,9.30
2022-11-06T23:14:42.476Z,9.40
2022-11-06T23:17:11.988Z,9.50
2022-11-06T23:19:40.065Z,9.50
2022-11-06T23:22:25.912Z,9.40
2022-11-06T23:24:54.758Z,9.50
2022-11-06T23:27:23.852Z,9.50
2022-11-06T23:29:51.850Z,9.50
2022-11-06T23:32:21.281Z,9.50
2022-11-06T23:34:49.625Z,9.40
2022-11-06T23:37:18.049Z,9.50
2022-11-06T23:39:46.090Z,9.50
2022-11-06T23:42:15.681Z,9.50
2022-11-06T23:45:01.455Z,9.60
2022-11-06T23:47:30.949Z,9.60
2022-11-06T23:50:01.901Z,9.60
2022-11-06T23:52:30.374Z,9.70
2022-11-06T23:54:58.505Z,9.70
2022-11-06T23:57:26.537Z,9.70
2022-11-06T23:59:55.004Z,9.70
